Airfield :
LOGIN :

Register | Disclaimer

   EN    FR    IT 

 










Legend :    VFR   Marginal VFR   IFR   Intensive IFR   Very Intensive IFR
Visi :
Ceiling :
>= 8 km
>= 3000ft
5 to 8 km
1000 to 3000 ft
1500m to 5 km
500 to 1000 ft
800 to 1500m
200 to 500 ft
< 800m
< 200 ft
Symbols :   Thunderstorms  Fog  Heavy snow  Heavy precipitations  Wind > 20 kt
SIGMETs :     Misc.  Thunderstorms  Icing  Turbulence  Mountain Waves  Volcanic Ashes







- Airport Elevation : 230 ft


ETHB - Buckeburg Army

CURRENT METAR :
  • 160623Z 19002KT 9999 RA FEW004 OVC031 11/11 Q1020 BLU BLU TEMPO GRN

EXPIRED METARs :
  • 160520Z 18003KT 9999 -RA FEW007 OVC033 11/10 Q1020 RERA BLU BLU TEMPO GRN
  • 160511Z 18003KT 9999 -RA FEW007 OVC033 11/10 Q1020 RERA BLU BLU TEMPO GRN
  • 160432Z 18002KT 7000 RA FEW002 BKN033 11/10 Q1020 WHT BLU TEMPO GRN
  • 160420Z 23003KT 9000 -RA FEW007 BKN032 11/10 Q1020 BLU BLU TEMPO GRN

TAF TAF ETHB
Valid from the 16 at 05:00 until the 16 at 14:00 UTC


160415Z 1605/1614 28007KT 8000 NSW SCT010 BKN025
TEMPO 1605/1614 24005KT 4000 -RADZ BKN007 BKN020
No reported NOTAMs for that airfield.



MET'MAP, your aeronautical weather chart ! - Copyright ORBIFLY December 2007 - Disclaimer

ORBIFLY MET'MAP TEAM :

Programming & Development : Alexandra Zaïnal
Concept & Development : Baudouin d'Aumeries
Co-Development & Prog : Marc-Olivier Méhu
Technical & hardware support : Manuel Goepfert

Contact : metmap@orbifly.com




SOURCES & CREDITS :

   NOAA